Time;durP1;ratioP1;P1;durP2;ratioP2;P2;SDS_P1;SDS_P2;PMS_P1;PMS_P2;Temp;Humidity;BMP_temperature;BMP_pressure;BME280_temperature;BME280_humidity;BME280_pressure;Samples;Min_cycle;Max_cycle;Signal;HPM_P1;HPM_P2
2022/02/02 00:01:32;;;;;;;0.50;0.50;;;;;;;;;;5073238;28;20165;-65
2022/02/02 00:03:59;;;;;;;0.50;0.50;;;;;;;;;;5073444;28;20174;-65
2022/02/02 00:06:35;;;;;;;0.50;0.50;;;;;;;;;;5073611;28;20701;-65
2022/02/02 00:09:07;;;;;;;0.50;0.50;;;;;;;;;;5074122;28;20205;-65
2022/02/02 00:17:05;;;;;;;0.50;0.50;;;;;;;;;;5072421;28;20193;-64
2022/02/02 00:22:21;;;;;;;0.60;0.60;;;;;;;;;;5072885;28;20171;-65
2022/02/02 00:27:16;;;;;;;0.40;0.40;;;;;;;;;;5072616;28;20767;-65
2022/02/02 00:29:48;;;;;;;0.50;0.50;;;;;;;;;;5072886;28;20407;-66
2022/02/02 00:34:55;;;;;;;0.50;0.50;;;;;;;;;;5072881;28;20174;-66
2022/02/02 00:37:21;;;;;;;0.50;0.50;;;;;;;;;;5072557;28;20217;-65
2022/02/02 00:39:47;;;;;;;0.50;0.50;;;;;;;;;;5072497;28;20167;-65
2022/02/02 00:42:13;;;;;;;0.50;0.50;;;;;;;;;;5072293;28;20405;-65
2022/02/02 00:44:45;;;;;;;0.50;0.50;;;;;;;;;;5072485;28;20495;-65
2022/02/02 00:47:18;;;;;;;0.50;0.50;;;;;;;;;;5072006;28;20670;-64
2022/02/02 00:49:46;;;;;;;0.47;0.47;;;;;;;;;;5072493;28;20181;-65
2022/02/02 00:52:12;;;;;;;0.50;0.50;;;;;;;;;;5071511;28;20171;-65
2022/02/02 00:54:38;;;;;;;0.50;0.50;;;;;;;;;;5072140;28;20309;-64
2022/02/02 00:57:04;;;;;;;0.50;0.50;;;;;;;;;;5071825;28;20437;-62
2022/02/02 00:59:30;;;;;;;0.50;0.50;;;;;;;;;;5070834;28;20425;-64
2022/02/02 01:01:56;;;;;;;0.50;0.50;;;;;;;;;;5071678;28;20200;-64
2022/02/02 01:04:22;;;;;;;0.50;0.50;;;;;;;;;;5072059;28;20428;-65
2022/02/02 01:07:09;;;;;;;0.60;0.60;;;;;;;;;;5071392;28;20187;-65
2022/02/02 01:09:42;;;;;;;0.50;0.50;;;;;;;;;;5072132;28;20216;-65
2022/02/02 01:12:41;;;;;;;0.50;0.50;;;;;;;;;;5068198;28;20176;-64
2022/02/02 01:42:02;;;;;;;0.57;0.57;;;;;;;;;;5064243;28;20600;-65
2022/02/02 01:44:37;;;;;;;0.50;0.50;;;;;;;;;;5071378;28;20220;-65
2022/02/02 01:47:06;;;;;;;0.50;0.50;;;;;;;;;;5070674;28;20194;-66
2022/02/02 01:52:25;;;;;;;0.45;0.45;;;;;;;;;;5070717;28;20649;-65
2022/02/02 01:54:57;;;;;;;0.50;0.50;;;;;;;;;;5071203;28;20170;-65
2022/02/02 01:57:50;;;;;;;0.50;0.50;;;;;;;;;;5070926;28;20265;-64
2022/02/02 02:00:14;;;;;;;0.50;0.50;;;;;;;;;;5070478;28;20190;-64
2022/02/02 02:02:40;;;;;;;0.50;0.50;;;;;;;;;;5071177;28;20187;-65
2022/02/02 02:05:06;;;;;;;0.50;0.50;;;;;;;;;;5071152;28;20201;-65
2022/02/02 02:07:33;;;;;;;0.50;0.50;;;;;;;;;;5070581;28;20509;-64
2022/02/02 02:09:59;;;;;;;0.50;0.50;;;;;;;;;;5070930;28;20225;-65
2022/02/02 02:12:30;;;;;;;0.50;0.50;;;;;;;;;;5070729;28;20186;-64
2022/02/02 02:15:02;;;;;;;0.60;0.60;;;;;;;;;;5052866;28;20218;-66
2022/02/02 02:17:28;;;;;;;0.40;0.40;;;;;;;;;;5071010;28;20283;-66
2022/02/02 02:19:54;;;;;;;0.50;0.50;;;;;;;;;;5070678;28;20256;-66
2022/02/02 02:22:21;;;;;;;0.50;0.50;;;;;;;;;;5070316;28;20308;-66
2022/02/02 02:24:47;;;;;;;0.47;0.47;;;;;;;;;;5071266;28;20442;-65
2022/02/02 02:27:17;;;;;;;0.50;0.50;;;;;;;;;;5070535;28;20193;-64
2022/02/02 02:56:42;;;;;;;0.50;0.50;;;;;;;;;;5074453;28;20261;-64
2022/02/02 02:59:13;;;;;;;0.50;0.50;;;;;;;;;;5074211;28;20206;-65
2022/02/02 03:32:55;;;;;;;0.50;0.50;;;;;;;;;;5094318;28;20239;-62
2022/02/02 04:07:01;;;;;;;0.50;0.50;;;;;;;;;;5093943;28;20616;-62
2022/02/02 04:09:29;;;;;;;0.60;0.60;;;;;;;;;;5093390;28;20217;-62
2022/02/02 04:12:09;;;;;;;0.50;0.50;;;;;;;;;;5075118;28;20174;-62
2022/02/02 04:39:14;;;;;;;0.60;0.60;;;;;;;;;;5092855;28;20229;-62
2022/02/02 04:55:50;;;;;;;0.50;0.50;;;;;;;;;;5092808;28;20196;-62
2022/02/02 04:58:31;;;;;;;0.50;0.50;;;;;;;;;;5092461;28;20197;-62
2022/02/02 05:04:52;;;;;;;0.40;0.40;;;;;;;;;;5057586;28;20219;-62
2022/02/02 05:06:54;;;;;;;0.50;0.50;;;;;;;;;;5089199;28;20703;-62
2022/02/02 05:52:46;;;;;;;0.50;0.50;;;;;;;;;;5091624;28;20218;-62
2022/02/02 05:55:12;;;;;;;0.50;0.50;;;;;;;;;;5091691;28;20173;-62
2022/02/02 05:57:42;;;;;;;0.50;0.50;;;;;;;;;;5091456;28;20198;-62
2022/02/02 06:00:08;;;;;;;0.50;0.50;;;;;;;;;;5091538;28;20258;-62
2022/02/02 06:02:38;;;;;;;0.50;0.50;;;;;;;;;;5091581;28;20170;-62
2022/02/02 06:05:05;;;;;;;0.50;0.50;;;;;;;;;;5091532;28;20159;-62
2022/02/02 06:07:35;;;;;;;0.50;0.50;;;;;;;;;;5091158;28;20213;-62
2022/02/02 06:10:04;;;;;;;0.40;0.40;;;;;;;;;;5091500;28;20162;-62
2022/02/02 06:12:31;;;;;;;0.40;0.40;;;;;;;;;;5091288;28;20649;-62
2022/02/02 06:14:58;;;;;;;0.50;0.50;;;;;;;;;;5091502;28;20174;-62
2022/02/02 06:17:26;;;;;;;0.50;0.50;;;;;;;;;;5095004;28;20227;-62
2022/02/02 06:19:52;;;;;;;0.40;0.40;;;;;;;;;;5095525;28;20176;-62
2022/02/02 06:22:19;;;;;;;0.40;0.40;;;;;;;;;;5095333;28;20166;-62
2022/02/02 06:24:49;;;;;;;0.40;0.40;;;;;;;;;;5095434;28;20499;-62
2022/02/02 06:27:20;;;;;;;0.40;0.40;;;;;;;;;;5095427;28;20181;-62
2022/02/02 06:29:46;;;;;;;0.45;0.45;;;;;;;;;;5095509;28;20575;-62
2022/02/02 06:32:16;;;;;;;0.50;0.50;;;;;;;;;;5095474;28;20691;-62
2022/02/02 06:34:44;;;;;;;0.50;0.50;;;;;;;;;;5095143;28;20196;-62
2022/02/02 06:37:11;;;;;;;0.50;0.50;;;;;;;;;;5095079;28;20608;-62
2022/02/02 06:39:38;;;;;;;0.50;0.50;;;;;;;;;;5095063;28;20197;-62
2022/02/02 06:42:05;;;;;;;0.50;0.50;;;;;;;;;;5094870;28;20174;-62
2022/02/02 06:44:32;;;;;;;0.50;0.50;;;;;;;;;;5095105;28;20177;-62
2022/02/02 06:46:58;;;;;;;0.40;0.40;;;;;;;;;;5094979;28;20170;-62
2022/02/02 06:49:24;;;;;;;0.50;0.50;;;;;;;;;;5094806;28;20265;-62
2022/02/02 06:51:56;;;;;;;0.40;0.40;;;;;;;;;;5094762;28;20261;-62
2022/02/02 06:54:30;;;;;;;0.50;0.50;;;;;;;;;;5090081;28;20411;-62
2022/02/02 06:57:08;;;;;;;0.50;0.50;;;;;;;;;;5089208;28;20614;-62
2022/02/02 07:13:03;;;;;;;0.50;0.50;;;;;;;;;;5074321;28;20537;-62
2022/02/02 07:23:35;;;;;;;0.60;0.60;;;;;;;;;;5094079;28;20782;-62
2022/02/02 07:31:18;;;;;;;0.50;0.50;;;;;;;;;;5092043;28;20177;-62
2022/02/02 07:33:48;;;;;;;0.50;0.50;;;;;;;;;;5092314;28;20396;-62
2022/02/02 07:36:23;;;;;;;0.50;0.50;;;;;;;;;;5092331;28;20177;-62
2022/02/02 07:38:55;;;;;;;0.50;0.50;;;;;;;;;;5092079;28;20308;-63
2022/02/02 07:41:25;;;;;;;0.60;0.60;;;;;;;;;;5092938;28;20250;-62
2022/02/02 07:43:54;;;;;;;0.50;0.50;;;;;;;;;;5094007;28;20178;-62
2022/02/02 07:46:25;;;;;;;0.50;0.50;;;;;;;;;;5093945;28;20166;-62
2022/02/02 07:48:51;;;;;;;0.50;0.50;;;;;;;;;;5093889;28;20240;-63
2022/02/02 07:51:18;;;;;;;0.50;0.50;;;;;;;;;;5093952;28;20181;-62
2022/02/02 07:53:49;;;;;;;0.50;0.50;;;;;;;;;;5078300;28;20418;-62
2022/02/02 07:56:17;;;;;;;0.40;0.40;;;;;;;;;;5073062;28;20174;-62
2022/02/02 07:58:59;;;;;;;0.50;0.50;;;;;;;;;;5073324;28;20256;-63
2022/02/02 08:01:24;;;;;;;0.50;0.50;;;;;;;;;;5073323;28;20289;-62
2022/02/02 08:03:55;;;;;;;0.50;0.50;;;;;;;;;;5073609;28;20198;-62
2022/02/02 08:06:25;;;;;;;0.50;0.50;;;;;;;;;;5072878;28;20403;-62
2022/02/02 08:08:52;;;;;;;0.50;0.50;;;;;;;;;;5072808;28;20306;-62
2022/02/02 08:11:28;;;;;;;0.50;0.50;;;;;;;;;;5073533;28;20170;-62
2022/02/02 08:13:58;;;;;;;0.50;0.50;;;;;;;;;;5073450;28;20181;-62
2022/02/02 08:16:24;;;;;;;0.50;0.50;;;;;;;;;;5073307;28;20194;-62
2022/02/02 08:18:52;;;;;;;0.50;0.50;;;;;;;;;;5072112;28;20324;-62
2022/02/02 08:21:18;;;;;;;0.50;0.50;;;;;;;;;;5073006;28;20197;-62
2022/02/02 08:23:45;;;;;;;0.50;0.50;;;;;;;;;;5072898;28;20174;-62
2022/02/02 08:26:16;;;;;;;0.50;0.50;;;;;;;;;;5072910;28;20174;-62
2022/02/02 08:28:46;;;;;;;0.50;0.50;;;;;;;;;;5072854;28;20644;-62
2022/02/02 08:31:12;;;;;;;0.50;0.50;;;;;;;;;;5072535;28;20174;-62
2022/02/02 08:33:41;;;;;;;0.40;0.40;;;;;;;;;;5072896;28;20273;-62
2022/02/02 08:36:17;;;;;;;0.50;0.50;;;;;;;;;;5072876;28;20171;-63
2022/02/02 08:39:12;;;;;;;0.50;0.50;;;;;;;;;;5071921;28;20759;-63
2022/02/02 08:41:45;;;;;;;0.40;0.40;;;;;;;;;;5072524;28;20217;-62
2022/02/02 08:44:17;;;;;;;0.50;0.50;;;;;;;;;;5072825;28;20548;-62
2022/02/02 08:46:52;;;;;;;0.50;0.50;;;;;;;;;;5072601;28;20167;-62
2022/02/02 08:49:18;;;;;;;0.50;0.50;;;;;;;;;;5072504;28;20585;-62
2022/02/02 08:51:47;;;;;;;0.40;0.40;;;;;;;;;;5072337;28;20253;-62
2022/02/02 08:54:31;;;;;;;0.50;0.50;;;;;;;;;;5072561;28;20718;-62
2022/02/02 08:59:50;;;;;;;0.50;0.50;;;;;;;;;;5072323;28;20198;-62
2022/02/02 09:02:20;;;;;;;0.40;0.40;;;;;;;;;;5072288;28;20185;-62
2022/02/02 09:07:35;;;;;;;0.40;0.40;;;;;;;;;;5072347;28;20304;-64
2022/02/02 09:10:07;;;;;;;0.50;0.50;;;;;;;;;;5072095;28;20190;-62
2022/02/02 09:21:36;;;;;;;0.50;0.50;;;;;;;;;;5072068;28;20232;-62
2022/02/02 09:23:45;;;;;;;0.50;0.50;;;;;;;;;;5071726;28;20186;-63
2022/02/02 09:31:42;;;;;;;0.50;0.50;;;;;;;;;;5071931;28;20197;-62
2022/02/02 09:34:11;;;;;;;0.50;0.50;;;;;;;;;;5071726;28;20186;-62
2022/02/02 09:36:39;;;;;;;0.50;0.50;;;;;;;;;;5071705;28;20244;-62
2022/02/02 09:39:17;;;;;;;0.50;0.50;;;;;;;;;;5071661;28;20207;-62
2022/02/02 09:41:56;;;;;;;0.50;0.50;;;;;;;;;;5071349;28;20170;-62
2022/02/02 09:44:24;;;;;;;0.50;0.50;;;;;;;;;;5071614;28;20163;-62
2022/02/02 09:47:09;;;;;;;0.50;0.50;;;;;;;;;;5071565;28;20171;-62
2022/02/02 09:49:46;;;;;;;0.50;0.50;;;;;;;;;;5071621;28;20189;-62
2022/02/02 09:52:16;;;;;;;0.50;0.50;;;;;;;;;;5071359;28;20198;-62
2022/02/02 10:00:18;;;;;;;0.50;0.50;;;;;;;;;;5071315;28;20223;-62
2022/02/02 10:05:45;;;;;;;0.50;0.50;;;;;;;;;;5071793;28;20185;-62
2022/02/02 10:11:49;;;;;;;0.50;0.50;;;;;;;;;;5040051;28;20274;-63
2022/02/02 10:14:17;;;;;;;0.40;0.40;;;;;;;;;;5071188;28;20206;-63
2022/02/02 10:16:45;;;;;;;0.50;0.50;;;;;;;;;;5071366;28;20171;-63
2022/02/02 10:19:15;;;;;;;0.50;0.50;;;;;;;;;;5071022;28;20207;-63
2022/02/02 10:21:42;;;;;;;0.40;0.40;;;;;;;;;;5071002;28;20255;-63
2022/02/02 10:24:08;;;;;;;0.40;0.40;;;;;;;;;;5071247;28;20175;-63
2022/02/02 10:26:42;;;;;;;0.50;0.50;;;;;;;;;;5071216;28;20193;-63
2022/02/02 10:29:10;;;;;;;0.50;0.50;;;;;;;;;;5071089;28;20413;-62
2022/02/02 10:31:39;;;;;;;0.50;0.50;;;;;;;;;;5071081;28;20172;-62
2022/02/02 10:34:09;;;;;;;0.50;0.50;;;;;;;;;;5070944;28;20174;-62
2022/02/02 10:36:35;;;;;;;0.40;0.40;;;;;;;;;;5070980;28;20171;-62
2022/02/02 10:39:14;;;;;;;0.50;0.50;;;;;;;;;;5070621;28;20211;-62
2022/02/02 10:41:45;;;;;;;0.47;0.47;;;;;;;;;;5091204;28;20446;-62
2022/02/02 10:44:20;;;;;;;0.50;0.50;;;;;;;;;;5091698;28;20170;-62
2022/02/02 10:47:36;;;;;;;0.50;0.50;;;;;;;;;;5074355;28;20167;-63
2022/02/02 10:50:04;;;;;;;0.45;0.45;;;;;;;;;;5062542;28;20185;-62
2022/02/02 10:53:00;;;;;;;0.50;0.50;;;;;;;;;;5070331;28;20201;-62
2022/02/02 10:59:09;;;;;;;0.50;0.50;;;;;;;;;;5070493;28;20211;-63
2022/02/02 11:06:41;;;;;;;0.50;0.50;;;;;;;;;;5074876;28;20619;-63
2022/02/02 11:09:08;;;;;;;0.40;0.40;;;;;;;;;;5074227;28;20233;-63
2022/02/02 11:11:35;;;;;;;0.43;0.43;;;;;;;;;;5073962;28;20177;-63
2022/02/02 11:14:03;;;;;;;0.50;0.50;;;;;;;;;;5074564;28;20174;-63
2022/02/02 11:16:34;;;;;;;0.50;0.50;;;;;;;;;;5074395;28;20611;-63
2022/02/02 11:19:05;;;;;;;0.40;0.40;;;;;;;;;;5074627;28;20260;-62
2022/02/02 11:21:32;;;;;;;0.50;0.50;;;;;;;;;;5073725;28;20174;-62
2022/02/02 11:23:59;;;;;;;0.50;0.50;;;;;;;;;;5073947;28;20176;-63
2022/02/02 11:26:39;;;;;;;0.50;0.50;;;;;;;;;;5074168;28;20560;-62
2022/02/02 11:29:05;;;;;;;0.50;0.50;;;;;;;;;;5073956;28;20565;-63
2022/02/02 11:31:31;;;;;;;0.50;0.50;;;;;;;;;;5073131;28;20642;-62
2022/02/02 11:33:59;;;;;;;0.50;0.50;;;;;;;;;;5073946;28;20357;-63
2022/02/02 11:36:29;;;;;;;0.50;0.50;;;;;;;;;;5073596;28;20410;-62
2022/02/02 11:38:57;;;;;;;0.40;0.40;;;;;;;;;;5073812;28;20228;-62
2022/02/02 11:47:19;;;;;;;0.40;0.40;;;;;;;;;;5073946;28;20175;-63
2022/02/02 11:49:54;;;;;;;0.40;0.40;;;;;;;;;;5072769;28;20269;-64
2022/02/02 11:52:32;;;;;;;0.40;0.40;;;;;;;;;;5073169;28;20171;-64
2022/02/02 11:54:58;;;;;;;0.40;0.40;;;;;;;;;;5073413;28;20171;-64
2022/02/02 11:57:29;;;;;;;0.50;0.50;;;;;;;;;;5073429;28;20175;-63
2022/02/02 12:00:13;;;;;;;0.50;0.50;;;;;;;;;;5073084;28;20256;-63
2022/02/02 12:05:27;;;;;;;0.50;0.50;;;;;;;;;;5073107;28;20175;-63
2022/02/02 12:07:59;;;;;;;0.50;0.50;;;;;;;;;;5073357;28;20218;-63
2022/02/02 12:10:53;;;;;;;0.43;0.43;;;;;;;;;;5073113;28;20198;-63
2022/02/02 12:36:01;;;;;;;0.40;0.40;;;;;;;;;;5072741;28;20175;-64
2022/02/02 12:57:19;;;;;;;0.50;0.50;;;;;;;;;;5072699;28;20203;-63
2022/02/02 13:02:15;;;;;;;0.50;0.50;;;;;;;;;;5072182;28;20523;-63
2022/02/02 13:04:42;;;;;;;0.40;0.40;;;;;;;;;;5072182;28;20595;-63
2022/02/02 13:07:11;;;;;;;0.40;0.40;;;;;;;;;;5072086;28;20787;-63
2022/02/02 13:09:37;;;;;;;0.50;0.50;;;;;;;;;;5072177;28;20182;-63
2022/02/02 13:12:22;;;;;;;0.50;0.50;;;;;;;;;;5072048;28;20262;-63
2022/02/02 13:18:03;;;;;;;0.50;0.50;;;;;;;;;;5047883;28;20297;-63
2022/02/02 13:25:53;;;;;;;0.50;0.50;;;;;;;;;;5071831;28;20534;-63
2022/02/02 13:28:41;;;;;;;0.50;0.50;;;;;;;;;;5071783;28;20930;-63
2022/02/02 13:31:07;;;;;;;0.50;0.50;;;;;;;;;;5071748;28;20198;-63
2022/02/02 13:33:38;;;;;;;0.50;0.50;;;;;;;;;;5071795;28;20186;-63
2022/02/02 13:39:18;;;;;;;0.50;0.50;;;;;;;;;;5071748;28;20211;-63
2022/02/02 13:44:51;;;;;;;0.40;0.40;;;;;;;;;;5071972;28;20173;-63
2022/02/02 13:52:46;;;;;;;0.50;0.50;;;;;;;;;;5071320;28;20178;-63
2022/02/02 13:55:51;;;;;;;0.50;0.50;;;;;;;;;;5071729;28;20431;-63
2022/02/02 14:01:00;;;;;;;0.50;0.50;;;;;;;;;;5071220;28;20166;-63
2022/02/02 14:09:15;;;;;;;0.50;0.50;;;;;;;;;;5071553;28;20260;-63
2022/02/02 14:33:28;;;;;;;0.50;0.50;;;;;;;;;;5071472;28;20194;-63
2022/02/02 14:35:58;;;;;;;0.50;0.50;;;;;;;;;;5071136;28;20175;-63
2022/02/02 14:38:24;;;;;;;0.50;0.50;;;;;;;;;;5074244;28;20457;-64
2022/02/02 14:43:20;;;;;;;0.50;0.50;;;;;;;;;;5074988;28;20805;-63
2022/02/02 14:45:51;;;;;;;0.50;0.50;;;;;;;;;;5074725;28;20176;-63
2022/02/02 14:48:44;;;;;;;0.50;0.50;;;;;;;;;;5074690;28;20195;-63
2022/02/02 14:51:19;;;;;;;0.50;0.50;;;;;;;;;;5073856;28;20194;-63
2022/02/02 14:53:57;;;;;;;0.50;0.50;;;;;;;;;;5074774;28;20177;-63
2022/02/02 15:16:48;;;;;;;0.50;0.50;;;;;;;;;;5075212;28;20186;-63
2022/02/02 15:28:50;;;;;;;0.50;0.50;;;;;;;;;;5074251;28;20611;-63
2022/02/02 15:31:16;;;;;;;0.50;0.50;;;;;;;;;;5073371;28;20413;-63
2022/02/02 15:33:45;;;;;;;0.50;0.50;;;;;;;;;;5073847;28;20171;-63
2022/02/02 15:38:56;;;;;;;0.50;0.50;;;;;;;;;;5074078;28;20229;-63
2022/02/02 15:41:28;;;;;;;0.50;0.50;;;;;;;;;;5073362;28;20178;-63
2022/02/02 15:58:07;;;;;;;0.60;0.60;;;;;;;;;;5073343;28;20179;-63
2022/02/02 16:05:26;;;;;;;0.50;0.50;;;;;;;;;;5073487;28;20240;-63
2022/02/02 16:07:54;;;;;;;0.50;0.50;;;;;;;;;;5073206;28;20245;-63
2022/02/02 16:10:28;;;;;;;0.40;0.40;;;;;;;;;;5072770;28;20179;-63
2022/02/02 16:12:54;;;;;;;0.40;0.40;;;;;;;;;;5073388;28;20194;-64
2022/02/02 16:15:28;;;;;;;0.50;0.50;;;;;;;;;;5072200;28;20183;-63
2022/02/02 16:18:31;;;;;;;0.40;0.40;;;;;;;;;;5072718;28;20742;-64
2022/02/02 16:35:07;;;;;;;0.47;0.47;;;;;;;;;;5072602;28;20178;-63
2022/02/02 16:37:37;;;;;;;0.50;0.50;;;;;;;;;;5072648;28;20202;-63
2022/02/02 16:40:06;;;;;;;0.50;0.50;;;;;;;;;;5072616;28;20195;-63
2022/02/02 16:45:18;;;;;;;0.40;0.40;;;;;;;;;;5073101;28;20240;-64
2022/02/02 16:47:44;;;;;;;0.50;0.50;;;;;;;;;;5072210;28;20190;-63
2022/02/02 16:50:15;;;;;;;0.50;0.50;;;;;;;;;;5072160;28;20174;-63
2022/02/02 16:52:41;;;;;;;0.50;0.50;;;;;;;;;;5072250;28;20171;-63
2022/02/02 16:55:15;;;;;;;0.50;0.50;;;;;;;;;;5072662;28;20171;-63
2022/02/02 16:57:53;;;;;;;0.50;0.50;;;;;;;;;;5072205;28;20195;-63
2022/02/02 17:29:07;;;;;;;0.50;0.50;;;;;;;;;;5071659;28;20199;-63
2022/02/02 17:31:55;;;;;;;0.40;0.40;;;;;;;;;;5071209;28;20247;-63
2022/02/02 17:34:10;;;;;;;0.40;0.40;;;;;;;;;;5062552;28;20184;-64
2022/02/02 17:36:40;;;;;;;0.50;0.50;;;;;;;;;;5071673;28;20679;-63
2022/02/02 17:39:10;;;;;;;0.40;0.40;;;;;;;;;;5071473;28;20245;-63
2022/02/02 17:42:14;;;;;;;0.40;0.40;;;;;;;;;;5071338;28;20257;-63
2022/02/02 18:12:22;;;;;;;0.40;0.40;;;;;;;;;;5051827;28;20937;-63
2022/02/02 18:20:09;;;;;;;0.50;0.50;;;;;;;;;;5075772;28;20263;-63
2022/02/02 18:22:48;;;;;;;0.50;0.50;;;;;;;;;;5075785;28;20260;-62
2022/02/02 18:28:11;;;;;;;0.50;0.50;;;;;;;;;;5075425;28;20196;-62
2022/02/02 18:35:38;;;;;;;0.40;0.40;;;;;;;;;;5075196;28;20181;-63
2022/02/02 18:39:13;;;;;;;0.40;0.40;;;;;;;;;;5074901;28;20831;-63
2022/02/02 18:48:56;;;;;;;0.50;0.50;;;;;;;;;;5074426;28;20693;-63
2022/02/02 18:54:19;;;;;;;0.50;0.50;;;;;;;;;;5074706;28;20641;-63
2022/02/02 18:59:34;;;;;;;0.50;0.50;;;;;;;;;;5074286;28;20301;-63
2022/02/02 19:02:15;;;;;;;0.50;0.50;;;;;;;;;;5073242;28;20515;-63
2022/02/02 19:52:27;;;;;;;0.50;0.50;;;;;;;;;;5085454;28;20188;-63
2022/02/02 19:57:23;;;;;;;0.50;0.50;;;;;;;;;;5091628;28;20193;-63
2022/02/02 20:02:06;;;;;;;0.40;0.40;;;;;;;;;;5084674;28;20196;-63
2022/02/02 20:07:11;;;;;;;0.50;0.50;;;;;;;;;;5073146;28;20194;-63
2022/02/02 20:12:16;;;;;;;0.60;0.60;;;;;;;;;;5077142;28;20518;-63
2022/02/02 20:14:42;;;;;;;0.50;0.50;;;;;;;;;;5073234;28;20182;-63
2022/02/02 20:17:11;;;;;;;0.50;0.50;;;;;;;;;;5072374;28;20595;-63
2022/02/02 20:19:41;;;;;;;0.50;0.50;;;;;;;;;;5074617;28;20217;-64
2022/02/02 20:22:08;;;;;;;0.40;0.40;;;;;;;;;;5083291;28;20268;-63
2022/02/02 20:24:39;;;;;;;0.50;0.50;;;;;;;;;;5082565;28;20597;-63
2022/02/02 20:27:08;;;;;;;0.43;0.43;;;;;;;;;;5081549;28;20689;-63
2022/02/02 20:29:34;;;;;;;0.40;0.40;;;;;;;;;;5082076;28;20559;-63
2022/02/02 20:32:00;;;;;;;0.50;0.50;;;;;;;;;;5082177;28;20175;-64
2022/02/02 20:34:26;;;;;;;0.50;0.50;;;;;;;;;;5080617;28;20405;-63
2022/02/02 20:36:52;;;;;;;0.60;0.60;;;;;;;;;;5081841;28;20190;-63
2022/02/02 20:39:39;;;;;;;0.50;0.50;;;;;;;;;;5082218;28;20530;-63
2022/02/02 20:42:07;;;;;;;0.40;0.40;;;;;;;;;;5082960;28;20794;-65
2022/02/02 21:06:17;;;;;;;0.50;0.50;;;;;;;;;;5091983;28;20190;-63
2022/02/02 21:11:19;;;;;;;0.50;0.50;;;;;;;;;;5091938;28;20181;-63
2022/02/02 21:13:52;;;;;;;0.40;0.40;;;;;;;;;;5092303;28;21091;-63
2022/02/02 21:16:21;;;;;;;0.40;0.40;;;;;;;;;;5092176;28;20182;-63
2022/02/02 21:18:54;;;;;;;0.55;0.55;;;;;;;;;;5091627;28;20744;-63
2022/02/02 21:21:23;;;;;;;0.50;0.50;;;;;;;;;;5091797;28;20604;-63
2022/02/02 21:29:03;;;;;;;0.50;0.50;;;;;;;;;;5091425;28;20197;-63
2022/02/02 21:31:29;;;;;;;0.50;0.50;;;;;;;;;;5091631;28;20182;-63
2022/02/02 21:33:55;;;;;;;0.50;0.50;;;;;;;;;;5091769;28;20166;-65
2022/02/02 21:36:21;;;;;;;0.50;0.50;;;;;;;;;;5091591;28;20782;-63
2022/02/02 21:39:18;;;;;;;0.40;0.40;;;;;;;;;;5091710;28;20251;-63
2022/02/02 21:41:36;;;;;;;0.50;0.50;;;;;;;;;;5089685;28;20255;-63
2022/02/02 21:44:03;;;;;;;0.40;0.40;;;;;;;;;;5091315;28;20636;-63
2022/02/02 21:46:29;;;;;;;0.50;0.50;;;;;;;;;;5091315;28;20227;-63
2022/02/02 21:48:56;;;;;;;0.50;0.50;;;;;;;;;;5092080;28;20197;-63
2022/02/02 21:51:55;;;;;;;0.40;0.40;;;;;;;;;;5091203;28;20170;-63
2022/02/02 21:54:09;;;;;;;0.50;0.50;;;;;;;;;;5091039;28;20601;-63
2022/02/02 21:56:35;;;;;;;0.47;0.47;;;;;;;;;;5091763;28;20170;-62
2022/02/02 21:59:01;;;;;;;0.50;0.50;;;;;;;;;;5091377;28;20982;-63
2022/02/02 22:01:27;;;;;;;0.40;0.40;;;;;;;;;;5090935;28;20403;-63
2022/02/02 22:03:53;;;;;;;0.40;0.40;;;;;;;;;;5091210;28;20432;-64
2022/02/02 22:06:19;;;;;;;0.50;0.50;;;;;;;;;;5091542;28;20205;-63
2022/02/02 22:08:45;;;;;;;0.50;0.50;;;;;;;;;;5091397;28;20508;-64
2022/02/02 22:11:11;;;;;;;0.50;0.50;;;;;;;;;;5091271;28;20872;-63
2022/02/02 22:13:41;;;;;;;0.40;0.40;;;;;;;;;;5090679;28;20174;-63
2022/02/02 22:16:11;;;;;;;0.50;0.50;;;;;;;;;;5091559;28;20396;-63
2022/02/02 22:18:38;;;;;;;0.45;0.45;;;;;;;;;;5091523;28;20292;-63
2022/02/02 22:21:04;;;;;;;0.45;0.45;;;;;;;;;;5091398;28;20176;-63
2022/02/02 22:23:30;;;;;;;0.50;0.50;;;;;;;;;;5091380;28;20537;-63
2022/02/02 22:25:57;;;;;;;0.40;0.40;;;;;;;;;;5090937;28;20841;-63
2022/02/02 22:28:23;;;;;;;0.50;0.50;;;;;;;;;;5091233;28;20290;-63
2022/02/02 22:30:49;;;;;;;0.40;0.40;;;;;;;;;;5091160;28;20176;-63
2022/02/02 22:33:15;;;;;;;0.40;0.40;;;;;;;;;;5091339;28;20620;-63
2022/02/02 22:35:41;;;;;;;0.50;0.50;;;;;;;;;;5090727;28;20415;-63
2022/02/02 22:38:08;;;;;;;0.50;0.50;;;;;;;;;;5090956;28;20416;-63
2022/02/02 22:40:35;;;;;;;0.50;0.50;;;;;;;;;;5080174;28;20412;-64
2022/02/02 22:43:01;;;;;;;0.50;0.50;;;;;;;;;;5071849;28;20908;-63
2022/02/02 22:45:28;;;;;;;0.50;0.50;;;;;;;;;;5079438;28;20170;-63
2022/02/02 22:47:56;;;;;;;0.50;0.50;;;;;;;;;;5082007;28;20199;-63
2022/02/02 22:50:22;;;;;;;0.50;0.50;;;;;;;;;;5079188;28;20233;-63
2022/02/02 22:52:52;;;;;;;0.50;0.50;;;;;;;;;;5081970;28;20170;-63
2022/02/02 22:55:19;;;;;;;0.50;0.50;;;;;;;;;;5081095;28;20398;-64
2022/02/02 22:57:47;;;;;;;0.40;0.40;;;;;;;;;;5080072;28;20188;-63
2022/02/02 23:00:15;;;;;;;0.45;0.45;;;;;;;;;;5084362;28;20686;-64
2022/02/02 23:02:52;;;;;;;0.43;0.43;;;;;;;;;;5067359;28;20312;-64
2022/02/02 23:05:20;;;;;;;0.40;0.40;;;;;;;;;;5084879;28;20190;-64
2022/02/02 23:07:46;;;;;;;0.43;0.43;;;;;;;;;;5082932;28;20314;-64
2022/02/02 23:10:12;;;;;;;0.40;0.40;;;;;;;;;;5084257;28;20252;-64
2022/02/02 23:12:38;;;;;;;0.40;0.40;;;;;;;;;;5084642;28;20753;-64
2022/02/02 23:15:09;;;;;;;0.50;0.50;;;;;;;;;;5083201;28;20420;-64
2022/02/02 23:17:36;;;;;;;0.55;0.55;;;;;;;;;;5084134;28;20204;-64
2022/02/02 23:20:02;;;;;;;0.50;0.50;;;;;;;;;;5085041;28;20719;-64
2022/02/02 23:22:31;;;;;;;0.50;0.50;;;;;;;;;;5082991;28;20179;-64
2022/02/02 23:25:01;;;;;;;0.50;0.50;;;;;;;;;;5083766;28;20172;-64
2022/02/02 23:27:27;;;;;;;0.50;0.50;;;;;;;;;;5084945;28;20621;-64
2022/02/02 23:29:55;;;;;;;0.50;0.50;;;;;;;;;;5083703;28;20667;-64
2022/02/02 23:32:24;;;;;;;0.40;0.40;;;;;;;;;;5082816;28;20186;-64
2022/02/02 23:34:50;;;;;;;0.50;0.50;;;;;;;;;;5084703;28;20185;-64
2022/02/02 23:37:17;;;;;;;0.50;0.50;;;;;;;;;;5083370;28;20171;-64
2022/02/02 23:39:43;;;;;;;0.50;0.50;;;;;;;;;;5083191;28;20954;-63
2022/02/02 23:42:20;;;;;;;0.50;0.50;;;;;;;;;;5084636;28;20219;-63
2022/02/02 23:44:50;;;;;;;0.50;0.50;;;;;;;;;;5084855;28;20192;-63
2022/02/02 23:47:17;;;;;;;0.50;0.50;;;;;;;;;;5083164;28;20199;-64
2022/02/02 23:49:51;;;;;;;0.50;0.50;;;;;;;;;;5082807;28;20231;-64
2022/02/02 23:52:22;;;;;;;0.40;0.40;;;;;;;;;;5083241;28;20675;-63
2022/02/02 23:54:51;;;;;;;0.45;0.45;;;;;;;;;;5064237;28;20180;-64
2022/02/02 23:57:33;;;;;;;0.50;0.50;;;;;;;;;;5083539;28;20223;-64
